Time;durP1;ratioP1;P1;durP2;ratioP2;P2;SDS_P1;SDS_P2;PMS_P1;PMS_P2;Temp;Humidity;BMP_temperature;BMP_pressure;BME280_temperature;BME280_humidity;BME280_pressure;Samples;Min_cycle;Max_cycle;Signal;HPM_P1;HPM_P2
2021/12/19 00:09:49;;;;;;;11.45;3.78;;;7.80;99.90;;;;;;5050366;28;20087;-76
2021/12/19 00:12:15;;;;;;;4.78;2.38;;;7.80;99.90;;;;;;5053863;28;20112;-76
2021/12/19 00:14:40;;;;;;;7.57;2.40;;;7.80;99.90;;;;;;5076965;28;20037;-76
2021/12/19 00:17:06;;;;;;;3.65;2.05;;;7.80;99.90;;;;;;5050556;28;20041;-77
2021/12/19 00:19:32;;;;;;;3.30;2.05;;;7.80;99.90;;;;;;5050916;28;20120;-76
2021/12/19 00:21:58;;;;;;;1.63;1.52;;;7.80;99.90;;;;;;5052485;28;20086;-76
2021/12/19 00:24:24;;;;;;;2.92;1.85;;;7.80;99.90;;;;;;5033252;28;20576;-76
2021/12/19 00:26:50;;;;;;;1.02;0.95;;;7.80;99.90;;;;;;5034967;28;20127;-76
2021/12/19 00:29:16;;;;;;;1.77;1.35;;;7.80;99.90;;;;;;5050237;28;20071;-77
2021/12/19 00:31:45;;;;;;;4.70;1.75;;;7.80;99.90;;;;;;5052475;28;20037;-76
2021/12/19 00:34:13;;;;;;;5.80;3.70;;;7.80;99.90;;;;;;5050101;28;20059;-76
2021/12/19 00:36:39;;;;;;;7.43;4.38;;;7.80;99.90;;;;;;5054752;28;20455;-76
2021/12/19 00:39:04;;;;;;;16.38;5.65;;;7.80;99.90;;;;;;5045196;28;20041;-76
2021/12/19 00:41:30;;;;;;;15.85;5.20;;;7.80;99.90;;;;;;5047845;28;20060;-76
2021/12/19 00:44:07;;;;;;;8.25;3.85;;;7.80;99.90;;;;;;5033008;28;20467;-76
2021/12/19 00:46:43;;;;;;;2.10;1.58;;;7.80;99.90;;;;;;5057164;28;20927;-76
2021/12/19 00:49:09;;;;;;;0.40;0.40;;;7.70;99.90;;;;;;5029152;28;20049;-76
2021/12/19 00:51:35;;;;;;;2.13;1.27;;;7.60;99.90;;;;;;5047251;28;20781;-76
2021/12/19 00:54:01;;;;;;;6.93;1.45;;;7.60;99.90;;;;;;5071360;28;20040;-76
2021/12/19 00:56:27;;;;;;;4.25;1.45;;;7.60;99.90;;;;;;5061295;28;20045;-76
2021/12/19 00:58:53;;;;;;;1.27;0.90;;;7.60;99.90;;;;;;5060959;28;20049;-76
2021/12/19 01:01:19;;;;;;;4.72;1.48;;;7.60;99.90;;;;;;5060043;28;20114;-76
2021/12/19 01:03:47;;;;;;;2.92;1.50;;;7.60;99.90;;;;;;5045610;28;20048;-76
2021/12/19 01:06:16;;;;;;;2.17;1.30;;;7.60;99.90;;;;;;5057700;28;20341;-76
2021/12/19 01:08:42;;;;;;;7.22;2.20;;;7.60;99.90;;;;;;5088125;28;20113;-76
2021/12/19 01:11:08;;;;;;;1.55;0.82;;;7.60;99.90;;;;;;5062810;28;20231;-76
2021/12/19 01:13:34;;;;;;;1.98;1.25;;;7.60;99.90;;;;;;5067971;28;20494;-76
2021/12/19 01:16:01;;;;;;;5.03;2.58;;;7.60;99.90;;;;;;5060177;28;20048;-77
2021/12/19 01:18:27;;;;;;;1.50;1.13;;;7.60;99.90;;;;;;5048707;28;20048;-76
2021/12/19 01:20:53;;;;;;;4.47;1.77;;;7.60;99.90;;;;;;5050221;28;20516;-77
2021/12/19 01:23:19;;;;;;;5.40;1.10;;;7.60;99.90;;;;;;5049240;28;20405;-76
2021/12/19 01:25:44;;;;;;;1.55;1.25;;;7.60;99.90;;;;;;5053549;28;20586;-76
2021/12/19 01:28:10;;;;;;;1.42;0.98;;;7.60;99.90;;;;;;5062062;28;20041;-76
2021/12/19 01:30:36;;;;;;;3.05;1.08;;;7.60;99.90;;;;;;5035657;28;20068;-76
2021/12/19 01:33:02;;;;;;;0.60;0.60;;;7.60;99.90;;;;;;5064014;28;20056;-76
2021/12/19 01:35:28;;;;;;;4.13;1.27;;;7.60;99.90;;;;;;5067295;28;20036;-76
2021/12/19 01:37:54;;;;;;;0.65;0.63;;;7.50;99.90;;;;;;5071062;28;20036;-76
2021/12/19 01:40:21;;;;;;;1.27;1.17;;;7.50;99.90;;;;;;5036942;28;20045;-76
2021/12/19 01:42:50;;;;;;;4.45;1.48;;;7.50;99.90;;;;;;5080889;28;20040;-76
2021/12/19 01:45:31;;;;;;;0.45;0.45;;;7.50;99.90;;;;;;5031554;28;20121;-76
2021/12/19 01:47:58;;;;;;;2.50;1.00;;;7.50;99.90;;;;;;5032465;28;20042;-76
2021/12/19 01:50:24;;;;;;;4.00;1.65;;;7.50;99.90;;;;;;5050337;28;20040;-76
2021/12/19 01:52:51;;;;;;;0.95;0.88;;;7.50;99.90;;;;;;5065351;28;20063;-76
2021/12/19 01:55:17;;;;;;;5.85;2.00;;;7.50;99.90;;;;;;5038180;28;20044;-76
2021/12/19 01:57:43;;;;;;;1.85;1.58;;;7.50;99.90;;;;;;5051320;28;20504;-76
2021/12/19 02:00:26;;;;;;;1.27;0.90;;;7.50;99.90;;;;;;5049083;28;20044;-76
2021/12/19 02:02:53;;;;;;;1.95;0.80;;;7.50;99.90;;;;;;5052001;28;20048;-76
2021/12/19 02:05:19;;;;;;;1.90;1.10;;;7.50;99.90;;;;;;5056450;28;20386;-76
2021/12/19 02:07:49;;;;;;;1.90;1.25;;;7.50;99.90;;;;;;5036863;28;20121;-76
2021/12/19 02:10:18;;;;;;;0.95;0.80;;;7.50;99.90;;;;;;5069992;28;20044;-76
2021/12/19 02:12:47;;;;;;;3.50;1.48;;;7.50;99.90;;;;;;5051861;28;20108;-76
2021/12/19 02:15:20;;;;;;;4.10;2.03;;;7.50;99.90;;;;;;5045219;28;20068;-76
2021/12/19 02:17:48;;;;;;;3.05;1.58;;;7.50;99.90;;;;;;5047051;28;20048;-76
2021/12/19 02:20:15;;;;;;;2.35;1.52;;;7.50;99.90;;;;;;5069640;28;20044;-76
2021/12/19 02:22:42;;;;;;;1.85;1.00;;;7.50;99.90;;;;;;5040603;28;20049;-76
2021/12/19 02:25:08;;;;;;;4.05;1.77;;;7.50;99.90;;;;;;5045588;28;20056;-76
2021/12/19 02:27:34;;;;;;;2.03;1.08;;;7.50;99.90;;;;;;5031345;28;20137;-76
2021/12/19 02:30:01;;;;;;;2.13;1.10;;;7.50;99.90;;;;;;5050323;28;20814;-76
2021/12/19 02:32:29;;;;;;;1.10;1.00;;;7.40;99.90;;;;;;5049396;28;20036;-76
2021/12/19 02:34:58;;;;;;;2.88;1.30;;;7.40;99.90;;;;;;5069687;28;20409;-76
2021/12/19 02:48:10;;;;;;;0.60;0.50;;;7.40;99.90;;;;;;5044153;28;20119;-76
2021/12/19 02:50:45;;;;;;;2.83;0.77;;;7.40;99.90;;;;;;5030399;28;20073;-76
2021/12/19 02:53:11;;;;;;;2.85;0.65;;;7.40;99.90;;;;;;5058641;28;20047;-76
2021/12/19 02:55:36;;;;;;;2.03;0.98;;;7.40;99.90;;;;;;5036066;28;20175;-76
2021/12/19 02:58:03;;;;;;;1.77;1.38;;;7.30;99.90;;;;;;5056248;28;20127;-76
2021/12/19 03:00:28;;;;;;;3.40;0.65;;;7.30;99.90;;;;;;5039033;28;20092;-76
2021/12/19 03:02:55;;;;;;;0.10;0.10;;;7.20;99.90;;;;;;5053546;28;20525;-76
2021/12/19 03:05:21;;;;;;;2.45;0.80;;;7.20;99.90;;;;;;5041022;28;20040;-77
2021/12/19 03:07:49;;;;;;;0.30;0.30;;;7.20;99.90;;;;;;5080510;28;20071;-76
2021/12/19 03:18:12;;;;;;;5.18;1.05;;;7.10;99.90;;;;;;5043626;28;20556;-76
2021/12/19 03:20:39;;;;;;;2.30;1.10;;;7.10;99.90;;;;;;5069093;28;20051;-76
2021/12/19 03:23:06;;;;;;;0.98;0.65;;;7.00;99.90;;;;;;5054107;28;20052;-76
2021/12/19 03:25:33;;;;;;;1.08;0.90;;;7.00;99.90;;;;;;5061410;28;20040;-76
2021/12/19 03:27:59;;;;;;;0.90;0.60;;;7.10;99.90;;;;;;5046415;28;20045;-76
2021/12/19 03:30:26;;;;;;;1.75;1.05;;;7.10;99.90;;;;;;5065665;28;20049;-76
2021/12/19 03:32:52;;;;;;;1.00;0.50;;;7.10;99.90;;;;;;5042562;28;20457;-76
2021/12/19 03:35:18;;;;;;;4.45;1.38;;;7.10;99.90;;;;;;5068668;28;20116;-76
2021/12/19 03:37:44;;;;;;;3.72;1.50;;;7.10;99.90;;;;;;5059626;28;20043;-76
2021/12/19 03:40:13;;;;;;;2.30;0.88;;;7.10;99.90;;;;;;5076850;28;20037;-76
2021/12/19 03:42:44;;;;;;;4.90;1.88;;;7.00;99.90;;;;;;5030886;28;20147;-76
2021/12/19 03:45:13;;;;;;;4.75;1.55;;;7.10;99.90;;;;;;5085568;28;20115;-76
2021/12/19 03:47:39;;;;;;;7.88;2.28;;;7.10;99.90;;;;;;5033319;28;20060;-76
2021/12/19 03:50:08;;;;;;;5.35;1.90;;;7.00;99.90;;;;;;5081375;28;20091;-76
2021/12/19 03:52:34;;;;;;;2.25;1.63;;;7.00;99.90;;;;;;5054576;28;20123;-76
2021/12/19 03:55:00;;;;;;;5.40;1.98;;;7.00;99.90;;;;;;5065674;28;20112;-76
2021/12/19 03:57:26;;;;;;;5.75;1.30;;;7.00;99.90;;;;;;5024619;28;20500;-76
2021/12/19 03:59:52;;;;;;;1.95;1.23;;;7.00;99.90;;;;;;5062131;28;20052;-76
2021/12/19 04:02:25;;;;;;;6.07;2.75;;;7.00;99.90;;;;;;5037219;28;20042;-76
2021/12/19 04:04:51;;;;;;;4.35;1.67;;;7.10;99.90;;;;;;5098027;28;20040;-76
2021/12/19 04:07:17;;;;;;;5.18;2.00;;;7.10;99.90;;;;;;5024957;28;20387;-76
2021/12/19 04:09:43;;;;;;;1.45;0.90;;;7.10;99.90;;;;;;5038144;28;20040;-76
2021/12/19 04:12:09;;;;;;;4.85;1.75;;;7.10;99.90;;;;;;5050106;28;20041;-76
2021/12/19 04:14:35;;;;;;;4.72;1.35;;;7.10;99.90;;;;;;5055371;28;20037;-76
2021/12/19 04:17:02;;;;;;;0.90;0.57;;;7.00;99.90;;;;;;5035054;28;20090;-76
2021/12/19 04:19:28;;;;;;;1.10;0.90;;;7.00;99.90;;;;;;5031534;28;20038;-76
2021/12/19 04:21:55;;;;;;;2.67;1.77;;;7.00;99.90;;;;;;5090961;28;20044;-76
2021/12/19 04:24:21;;;;;;;4.45;1.67;;;7.00;99.90;;;;;;5062567;28;20203;-76
2021/12/19 04:26:46;;;;;;;3.85;1.60;;;7.10;99.90;;;;;;5050952;28;20091;-76
2021/12/19 04:29:12;;;;;;;3.97;0.85;;;7.10;99.90;;;;;;5064422;28;20037;-76
2021/12/19 04:31:40;;;;;;;7.75;3.10;;;7.20;99.90;;;;;;5054109;28;20087;-76
2021/12/19 04:34:06;;;;;;;10.82;3.50;;;7.10;99.90;;;;;;5055091;28;20044;-76
2021/12/19 04:36:37;;;;;;;8.35;3.00;;;7.10;99.90;;;;;;5069607;28;20068;-76
2021/12/19 04:55:38;;;;;;;10.07;2.75;;;7.30;99.90;;;;;;5084838;28;20408;-76
2021/12/19 04:58:45;;;;;;;4.90;1.25;;;7.30;99.90;;;;;;5042887;28;20045;-76
2021/12/19 05:03:42;;;;;;;6.82;3.03;;;7.30;99.90;;;;;;5052770;28;20229;-76
2021/12/19 05:14:21;;;;;;;15.75;3.63;;;7.30;99.90;;;;;;5055115;28;20052;-76
2021/12/19 05:16:48;;;;;;;12.52;4.85;;;7.40;99.90;;;;;;5073401;28;20428;-76
2021/12/19 05:19:26;;;;;;;6.07;3.47;;;7.30;99.90;;;;;;5041279;28;20119;-76
2021/12/19 05:21:55;;;;;;;16.90;5.75;;;7.40;99.90;;;;;;5058228;28;20078;-76
2021/12/19 05:27:03;;;;;;;9.55;2.17;;;7.40;99.90;;;;;;5051848;28;20048;-76
2021/12/19 05:29:30;;;;;;;7.80;3.92;;;7.40;99.90;;;;;;5037044;28;20063;-76
2021/12/19 05:31:56;;;;;;;12.52;6.05;;;7.40;99.90;;;;;;5024641;28;20037;-76
2021/12/19 05:34:22;;;;;;;4.82;2.92;;;7.40;99.90;;;;;;5092668;28;20135;-76
2021/12/19 05:45:14;;;;;;;14.68;4.78;;;7.40;99.90;;;;;;5066186;28;20449;-76
2021/12/19 05:47:48;;;;;;;6.75;3.00;;;7.40;99.90;;;;;;5056279;28;20112;-76
2021/12/19 05:50:16;;;;;;;12.25;5.20;;;7.40;99.90;;;;;;5063919;28;20077;-76
2021/12/19 05:52:42;;;;;;;18.52;5.50;;;7.40;99.90;;;;;;5033928;28;20406;-76
2021/12/19 05:55:09;;;;;;;12.60;5.22;;;7.40;99.90;;;;;;5027323;28;20037;-76
2021/12/19 05:57:34;;;;;;;14.05;5.80;;;7.50;99.90;;;;;;5051543;28;20572;-76
2021/12/19 06:00:03;;;;;;;9.27;4.35;;;7.40;99.90;;;;;;5065613;28;20043;-77
2021/12/19 06:02:29;;;;;;;4.95;3.50;;;7.50;99.90;;;;;;5052879;28;20033;-76
2021/12/19 06:04:55;;;;;;;5.30;2.85;;;7.50;99.90;;;;;;5094917;28;20045;-77
2021/12/19 06:07:21;;;;;;;8.45;3.65;;;7.50;99.90;;;;;;5059688;28;20040;-76
2021/12/19 06:09:47;;;;;;;4.63;2.17;;;7.50;99.90;;;;;;5083793;28;20051;-76
2021/12/19 06:12:12;;;;;;;13.85;5.63;;;7.50;99.90;;;;;;5049774;28;20037;-76
2021/12/19 06:14:38;;;;;;;9.45;4.15;;;7.40;99.90;;;;;;5072003;28;20041;-76
2021/12/19 06:17:05;;;;;;;7.50;3.13;;;7.40;99.90;;;;;;5036223;28;20038;-76
2021/12/19 06:19:36;;;;;;;19.58;5.68;;;7.50;99.90;;;;;;5095272;28;20048;-76
2021/12/19 06:22:04;;;;;;;1.98;1.58;;;7.40;99.90;;;;;;5032032;28;20477;-76
2021/12/19 06:24:30;;;;;;;6.05;2.22;;;7.40;99.90;;;;;;5081763;28;20036;-76
2021/12/19 06:26:56;;;;;;;21.98;4.75;;;7.40;99.90;;;;;;5062371;28;20158;-76
2021/12/19 06:29:21;;;;;;;8.80;4.15;;;7.40;99.90;;;;;;5076388;28;20143;-76
2021/12/19 06:31:47;;;;;;;6.47;3.17;;;7.40;99.90;;;;;;5017519;28;20044;-76
2021/12/19 06:34:13;;;;;;;12.65;3.33;;;7.40;99.90;;;;;;5066685;28;20091;-76
2021/12/19 06:36:40;;;;;;;3.35;2.10;;;7.40;99.90;;;;;;5039866;28;20146;-76
2021/12/19 06:39:06;;;;;;;1.45;1.35;;;7.40;99.90;;;;;;5054193;28;20048;-76
2021/12/19 06:41:34;;;;;;;7.93;2.72;;;7.40;99.90;;;;;;5066963;28;20099;-76
2021/12/19 06:43:59;;;;;;;12.00;3.38;;;7.40;99.90;;;;;;5052326;28;20045;-76
2021/12/19 06:46:25;;;;;;;6.20;2.83;;;7.40;99.90;;;;;;5055695;28;20102;-76
2021/12/19 06:48:51;;;;;;;9.35;3.65;;;7.40;99.90;;;;;;5025627;28;20047;-76
2021/12/19 06:51:17;;;;;;;5.78;3.45;;;7.40;99.90;;;;;;5048973;28;20071;-76
2021/12/19 06:53:42;;;;;;;8.20;2.63;;;7.50;99.90;;;;;;5061996;28;20119;-76
2021/12/19 06:56:08;;;;;;;10.98;2.53;;;7.40;99.90;;;;;;5046162;28;20056;-76
2021/12/19 06:58:34;;;;;;;1.02;0.85;;;7.40;99.90;;;;;;5069283;28;20043;-76
2021/12/19 07:01:00;;;;;;;11.70;2.17;;;7.40;99.90;;;;;;5049710;28;20044;-76
2021/12/19 07:03:25;;;;;;;2.25;1.30;;;7.40;99.90;;;;;;5022512;28;20471;-76
2021/12/19 07:05:51;;;;;;;7.45;1.08;;;7.40;99.90;;;;;;5045801;28;20422;-76
2021/12/19 07:08:17;;;;;;;14.75;2.53;;;7.40;99.90;;;;;;5059077;28;20076;-76
2021/12/19 07:10:43;;;;;;;0.43;0.43;;;7.40;99.90;;;;;;5047408;28;20076;-76
2021/12/19 07:13:09;;;;;;;8.25;2.53;;;7.40;99.90;;;;;;5078289;28;20044;-76
2021/12/19 07:15:35;;;;;;;7.13;1.08;;;7.40;99.90;;;;;;5042101;28;20106;-76
2021/12/19 07:18:05;;;;;;;10.07;2.35;;;7.40;99.90;;;;;;5055134;28;20062;-76
2021/12/19 07:20:31;;;;;;;10.30;4.05;;;7.40;99.90;;;;;;5048746;28;20056;-76
2021/12/19 07:22:57;;;;;;;3.05;1.92;;;7.40;99.90;;;;;;5027101;28;20045;-77
2021/12/19 07:25:23;;;;;;;9.27;2.67;;;7.40;99.90;;;;;;5046549;28;20120;-76
2021/12/19 07:27:49;;;;;;;3.35;1.17;;;7.40;99.90;;;;;;5048695;28;20116;-77
2021/12/19 07:30:14;;;;;;;0.30;0.30;;;7.40;99.90;;;;;;5064040;28;20032;-77
2021/12/19 07:32:40;;;;;;;1.67;0.77;;;7.40;99.90;;;;;;5061511;28;20125;-76
2021/12/19 07:35:09;;;;;;;14.68;2.78;;;7.40;99.90;;;;;;5038417;28;20036;-76
2021/12/19 07:37:38;;;;;;;0.35;0.35;;;7.40;99.90;;;;;;5031519;28;20045;-76
2021/12/19 07:40:27;;;;;;;6.72;2.83;;;7.40;99.90;;;;;;5056274;28;20060;-76
2021/12/19 07:42:54;;;;;;;7.28;2.45;;;7.40;99.90;;;;;;5080476;28;20454;-76
2021/12/19 07:45:20;;;;;;;5.07;2.08;;;7.40;99.90;;;;;;5058914;28;20109;-76
2021/12/19 07:47:46;;;;;;;9.57;2.90;;;7.40;99.90;;;;;;5052441;28;20041;-76
2021/12/19 07:50:12;;;;;;;8.90;1.17;;;7.40;99.90;;;;;;5033437;28;20068;-76
2021/12/19 07:52:39;;;;;;;9.35;2.92;;;7.40;99.90;;;;;;5062729;28;20115;-76
2021/12/19 07:55:06;;;;;;;9.10;2.03;;;7.40;99.90;;;;;;5086681;28;20048;-76
2021/12/19 07:57:31;;;;;;;2.05;0.85;;;7.40;99.90;;;;;;5055375;28;20040;-76
2021/12/19 07:59:57;;;;;;;5.07;2.53;;;7.40;99.90;;;;;;5064046;28;20052;-76
2021/12/19 08:02:23;;;;;;;3.20;1.75;;;7.50;99.90;;;;;;5034415;28;20064;-76
2021/12/19 08:04:49;;;;;;;16.92;1.25;;;7.50;99.90;;;;;;5062570;28;20041;-76
2021/12/19 08:07:17;;;;;;;14.50;1.58;;;7.40;99.90;;;;;;5071700;28;20043;-76
2021/12/19 08:10:11;;;;;;;0.82;0.82;;;7.50;99.90;;;;;;5050934;28;20040;-77
2021/12/19 08:12:38;;;;;;;1.02;0.82;;;7.50;99.90;;;;;;5055775;28;20443;-76
2021/12/19 08:15:08;;;;;;;4.47;2.08;;;7.50;99.90;;;;;;5051579;28;20044;-76
2021/12/19 08:17:34;;;;;;;6.72;1.08;;;7.50;99.90;;;;;;5044289;28;20036;-76
2021/12/19 08:20:03;;;;;;;3.90;1.50;;;7.50;99.90;;;;;;5071884;28;20041;-76
2021/12/19 08:22:30;;;;;;;3.63;1.85;;;7.60;99.90;;;;;;5093583;28;20401;-76
2021/12/19 08:24:57;;;;;;;1.75;0.73;;;7.50;99.90;;;;;;5055632;28;20056;-77
2021/12/19 08:27:25;;;;;;;1.75;1.65;;;7.60;99.90;;;;;;5050674;28;20044;-76
2021/12/19 08:29:55;;;;;;;9.32;1.80;;;7.60;99.90;;;;;;5045624;28;20140;-76
2021/12/19 08:32:24;;;;;;;4.53;1.00;;;7.60;99.90;;;;;;5035611;28;20404;-76
2021/12/19 08:34:50;;;;;;;10.32;2.10;;;7.60;99.90;;;;;;5035012;28;20048;-76
2021/12/19 08:37:16;;;;;;;9.88;1.52;;;7.60;99.90;;;;;;5039808;28;20072;-77
2021/12/19 08:39:44;;;;;;;4.05;1.52;;;7.60;99.90;;;;;;5078803;28;20190;-77
2021/12/19 08:42:10;;;;;;;7.03;2.88;;;7.60;99.90;;;;;;5071365;28;20052;-76
2021/12/19 08:44:36;;;;;;;6.00;1.88;;;7.60;99.90;;;;;;5055043;28;20051;-76
2021/12/19 08:47:03;;;;;;;4.85;1.50;;;7.70;99.90;;;;;;5054855;28;20054;-76
2021/12/19 08:49:29;;;;;;;0.90;0.68;;;7.70;99.90;;;;;;5088255;28;20071;-76
2021/12/19 08:51:54;;;;;;;4.47;1.60;;;7.60;99.90;;;;;;5071529;28;20076;-76
2021/12/19 08:54:21;;;;;;;8.20;1.92;;;7.70;99.90;;;;;;5042271;28;20041;-76
2021/12/19 08:56:47;;;;;;;2.25;1.38;;;7.70;99.90;;;;;;5071008;28;20048;-76
2021/12/19 08:59:12;;;;;;;1.65;1.00;;;7.80;99.90;;;;;;5071150;28;20036;-76
2021/12/19 09:01:38;;;;;;;3.47;1.63;;;7.70;99.90;;;;;;5053821;28;20040;-76
2021/12/19 09:04:04;;;;;;;1.50;1.23;;;7.70;99.90;;;;;;5032457;28;20371;-77
2021/12/19 09:06:30;;;;;;;2.90;0.80;;;7.70;99.90;;;;;;5070653;28;20083;-76
2021/12/19 09:08:56;;;;;;;1.08;0.80;;;7.70;99.90;;;;;;5063172;28;20069;-76
2021/12/19 09:11:22;;;;;;;8.70;2.22;;;7.70;99.90;;;;;;5058602;28;20603;-76
2021/12/19 09:13:47;;;;;;;9.98;2.75;;;7.70;99.90;;;;;;5050563;28;20044;-76
2021/12/19 09:16:14;;;;;;;5.70;1.95;;;7.70;99.90;;;;;;5059518;28;20040;-76
2021/12/19 09:18:40;;;;;;;3.40;2.97;;;7.70;99.90;;;;;;5065160;28;20078;-76
2021/12/19 09:21:06;;;;;;;5.53;1.80;;;7.70;99.90;;;;;;5053951;28;20074;-77
2021/12/19 09:23:33;;;;;;;6.45;1.90;;;7.70;99.90;;;;;;5038620;28;20045;-76
2021/12/19 09:26:00;;;;;;;13.10;2.47;;;7.70;99.90;;;;;;5057832;28;20124;-76
2021/12/19 09:28:25;;;;;;;3.33;2.35;;;7.80;99.90;;;;;;5071332;28;20443;-76
2021/12/19 09:30:51;;;;;;;5.57;1.73;;;7.80;99.90;;;;;;5053093;28;20037;-76
2021/12/19 09:33:17;;;;;;;6.22;2.08;;;7.80;99.90;;;;;;5060866;28;20084;-76
2021/12/19 09:35:43;;;;;;;2.90;1.02;;;7.80;99.90;;;;;;5066185;28;20148;-76
2021/12/19 09:38:09;;;;;;;7.20;1.42;;;7.70;99.90;;;;;;5048039;28;20484;-76
2021/12/19 09:40:38;;;;;;;13.75;2.58;;;7.80;99.90;;;;;;5075527;28;20048;-77
2021/12/19 09:43:21;;;;;;;0.30;0.30;;;7.80;99.90;;;;;;5060736;28;20045;-77
2021/12/19 09:45:52;;;;;;;4.35;1.08;;;7.80;99.90;;;;;;5074862;28;20044;-76
2021/12/19 09:48:18;;;;;;;5.20;1.15;;;7.80;99.90;;;;;;5051357;28;20048;-76
2021/12/19 09:50:44;;;;;;;5.60;1.73;;;7.80;99.90;;;;;;5085077;28;20048;-76
2021/12/19 09:53:10;;;;;;;1.23;0.45;;;7.80;99.90;;;;;;5032611;28;20048;-76
2021/12/19 09:55:36;;;;;;;1.52;0.85;;;7.80;99.90;;;;;;5058543;28;20044;-76
2021/12/19 09:58:02;;;;;;;9.68;1.77;;;7.90;99.90;;;;;;5047547;28;20450;-76
2021/12/19 10:00:28;;;;;;;8.07;2.10;;;7.80;99.90;;;;;;5052475;28;20102;-77
2021/12/19 10:02:54;;;;;;;1.67;1.10;;;7.90;99.90;;;;;;5081881;28;20049;-77
2021/12/19 10:05:24;;;;;;;10.60;2.05;;;7.90;99.90;;;;;;5060572;28;20044;-76
2021/12/19 10:07:58;;;;;;;6.13;1.33;;;7.90;99.90;;;;;;5055231;28;20642;-76
2021/12/19 10:11:00;;;;;;;14.90;1.83;;;7.90;99.90;;;;;;5045319;28;20052;-76
2021/12/19 10:13:34;;;;;;;7.03;1.30;;;7.90;99.90;;;;;;5057157;28;20439;-76
2021/12/19 10:16:00;;;;;;;20.00;4.57;;;7.90;99.90;;;;;;5082144;28;20389;-76
2021/12/19 10:18:26;;;;;;;1.17;1.17;;;8.00;99.90;;;;;;5043842;28;20102;-76
2021/12/19 10:20:59;;;;;;;12.63;2.45;;;7.90;99.90;;;;;;5057476;28;20082;-76
2021/12/19 10:23:28;;;;;;;;;;;8.00;99.90;;;;;;5034317;28;20041;-76
2021/12/19 10:26:10;;;;;;;1.00;0.73;;;7.90;99.90;;;;;;5076113;28;19921;-77
2021/12/19 10:28:53;;;;;;;12.27;2.22;;;8.00;99.90;;;;;;5037372;28;20053;-76
2021/12/19 10:31:20;;;;;;;11.95;3.85;;;8.00;99.90;;;;;;5053534;28;20052;-77
2021/12/19 10:33:47;;;;;;;7.40;2.17;;;8.00;99.90;;;;;;5052982;28;20393;-76
2021/12/19 10:36:13;;;;;;;16.40;2.22;;;8.00;99.90;;;;;;5061303;28;20427;-77
2021/12/19 10:38:45;;;;;;;4.65;1.58;;;8.10;99.90;;;;;;5043962;28;20036;-77
2021/12/19 10:41:25;;;;;;;4.43;1.33;;;8.00;99.90;;;;;;5037502;28;20037;-77
2021/12/19 10:44:03;;;;;;;3.85;1.42;;;8.10;99.90;;;;;;5047870;28;20132;-76
2021/12/19 10:46:38;;;;;;;1.70;1.23;;;8.00;99.90;;;;;;5039834;28;20076;-76
2021/12/19 10:49:06;;;;;;;15.68;2.28;;;8.00;99.90;;;;;;5064672;28;20054;-76
2021/12/19 10:51:38;;;;;;;4.65;1.48;;;8.00;99.90;;;;;;5048899;28;20040;-76
2021/12/19 10:54:07;;;;;;;0.57;0.50;;;8.00;99.90;;;;;;5067495;28;20495;-76
2021/12/19 10:56:35;;;;;;;18.75;2.92;;;8.00;99.90;;;;;;5050603;28;20392;-76
2021/12/19 10:59:10;;;;;;;7.03;1.00;;;8.00;99.90;;;;;;5056288;28;20032;-76
2021/12/19 11:01:37;;;;;;;4.03;1.15;;;8.00;99.90;;;;;;5047242;28;20097;-76
2021/12/19 11:04:08;;;;;;;8.10;1.45;;;8.00;99.90;;;;;;5068799;28;20044;-77
2021/12/19 11:06:54;;;;;;;4.88;1.20;;;8.00;99.90;;;;;;5048570;28;20041;-77
2021/12/19 11:09:28;;;;;;;45.63;2.90;;;8.00;99.90;;;;;;5058988;28;20124;-76
2021/12/19 11:12:03;;;;;;;1.83;0.90;;;8.10;99.90;;;;;;5039243;28;20456;-76
2021/12/19 11:14:32;;;;;;;6.88;1.58;;;8.10;99.90;;;;;;5058265;28;20068;-76
2021/12/19 11:17:02;;;;;;;0.77;0.77;;;8.10;99.90;;;;;;5079934;28;20048;-77
2021/12/19 11:19:29;;;;;;;10.70;1.83;;;8.10;99.90;;;;;;5068783;28;20048;-77
2021/12/19 11:21:55;;;;;;;9.63;1.92;;;8.10;99.90;;;;;;5055959;28;20041;-76
2021/12/19 11:24:23;;;;;;;6.63;1.55;;;8.10;99.90;;;;;;5029384;28;20044;-76
2021/12/19 11:26:53;;;;;;;13.25;3.63;;;8.10;99.90;;;;;;5043374;28;20036;-76
2021/12/19 11:29:19;;;;;;;3.38;0.88;;;8.20;99.90;;;;;;5047083;28;20477;-76
2021/12/19 11:31:50;;;;;;;5.28;1.75;;;8.20;99.90;;;;;;5049814;28;20123;-76
2021/12/19 11:35:00;;;;;;;6.80;0.95;;;8.20;99.90;;;;;;5034096;28;20037;-77
2021/12/19 11:37:43;;;;;;;2.85;1.42;;;8.30;99.90;;;;;;5036865;28;20045;-77
2021/12/19 11:40:14;;;;;;;13.18;2.72;;;8.30;99.90;;;;;;5084264;28;20060;-77
2021/12/19 11:42:41;;;;;;;6.72;2.78;;;8.30;99.90;;;;;;5051263;28;20045;-76
2021/12/19 11:51:05;;;;;;;14.00;1.67;;;8.30;99.90;;;;;;5084104;28;20080;-76
2021/12/19 11:53:41;;;;;;;10.05;1.98;;;8.30;99.90;;;;;;5033396;28;20500;-77
2021/12/19 11:56:09;;;;;;;12.30;2.50;;;8.30;99.90;;;;;;5044381;28;20041;-77
2021/12/19 11:58:53;;;;;;;17.05;2.55;;;8.40;99.90;;;;;;5048942;28;20037;-77
2021/12/19 12:01:31;;;;;;;7.93;1.85;;;8.40;99.90;;;;;;5045211;28;20037;-77
2021/12/19 12:04:03;;;;;;;13.20;2.95;;;8.40;99.90;;;;;;5044576;28;20036;-77
2021/12/19 12:06:52;;;;;;;16.75;1.42;;;8.40;99.90;;;;;;5043990;28;20052;-76
2021/12/19 12:09:26;;;;;;;14.02;2.90;;;8.40;99.90;;;;;;5048888;28;20076;-77
2021/12/19 12:12:04;;;;;;;14.38;2.15;;;8.40;99.90;;;;;;5031835;28;20055;-77
2021/12/19 12:14:36;;;;;;;17.90;2.35;;;8.40;99.90;;;;;;5033287;28;20107;-76
2021/12/19 12:17:09;;;;;;;18.35;3.47;;;8.40;99.90;;;;;;5032779;28;20040;-77
2021/12/19 12:19:42;;;;;;;7.13;1.35;;;8.40;99.90;;;;;;5067890;28;20388;-77
2021/12/19 12:22:26;;;;;;;15.55;2.63;;;8.40;99.90;;;;;;5031242;28;20485;-77
2021/12/19 12:25:12;;;;;;;3.28;2.00;;;8.50;99.90;;;;;;5083034;28;20048;-77
2021/12/19 12:28:03;;;;;;;9.40;3.72;;;8.50;99.90;;;;;;5028494;28;20049;-77
2021/12/19 12:30:34;;;;;;;19.80;7.10;;;8.50;99.90;;;;;;5060599;28;20044;-77
2021/12/19 12:33:02;;;;;;;13.88;4.10;;;8.50;99.90;;;;;;5033432;28;20090;-77
2021/12/19 12:35:31;;;;;;;16.60;5.53;;;8.50;99.90;;;;;;5033018;28;20041;-77
2021/12/19 12:37:58;;;;;;;12.70;3.97;;;8.50;99.90;;;;;;5049597;28;20076;-76
2021/12/19 12:40:45;;;;;;;12.60;2.35;;;8.60;99.90;;;;;;5082002;28;20037;-77
2021/12/19 12:43:12;;;;;;;8.15;1.63;;;8.50;99.90;;;;;;5080113;28;20500;-76
2021/12/19 12:46:06;;;;;;;3.55;2.55;;;8.50;99.90;;;;;;5029860;28;20037;-77
2021/12/19 12:48:42;;;;;;;6.93;3.80;;;8.60;99.90;;;;;;5029594;28;20114;-77
2021/12/19 12:51:24;;;;;;;9.25;2.13;;;8.60;99.90;;;;;;5046940;28;20041;-76
2021/12/19 12:53:53;;;;;;;12.00;2.15;;;8.60;99.90;;;;;;5049170;28;20045;-77
2021/12/19 12:56:26;;;;;;;6.20;2.13;;;8.60;99.90;;;;;;5044473;28;20044;-77
2021/12/19 12:58:55;;;;;;;11.98;2.03;;;8.60;99.90;;;;;;5045724;28;20174;-77
2021/12/19 13:01:23;;;;;;;4.50;1.85;;;8.60;99.90;;;;;;5080833;28;20103;-77
2021/12/19 13:04:09;;;;;;;11.98;1.95;;;8.60;99.90;;;;;;5049225;28;20094;-77
2021/12/19 13:06:40;;;;;;;7.90;2.63;;;8.60;99.90;;;;;;5031939;28;20045;-77
2021/12/19 13:09:18;;;;;;;9.32;1.38;;;8.50;99.90;;;;;;5026123;28;20395;-77
2021/12/19 13:11:46;;;;;;;3.20;1.45;;;8.50;99.90;;;;;;5030366;28;20045;-77
2021/12/19 13:14:24;;;;;;;7.57;1.70;;;8.50;99.90;;;;;;5055307;28;20084;-77
2021/12/19 13:17:12;;;;;;;14.23;3.42;;;8.50;99.90;;;;;;5047327;28;20118;-77
2021/12/19 13:20:06;;;;;;;10.60;1.83;;;8.50;99.90;;;;;;5080113;28;20045;-77
2021/12/19 13:22:43;;;;;;;37.03;14.18;;;8.50;99.90;;;;;;5031385;28;20039;-77
2021/12/19 13:25:19;;;;;;;11.27;3.88;;;8.50;99.90;;;;;;5062519;28;20556;-77
2021/12/19 13:27:55;;;;;;;7.05;2.45;;;8.50;99.90;;;;;;5031182;28;20439;-77
2021/12/19 13:30:36;;;;;;;8.70;2.15;;;8.50;99.90;;;;;;5031281;28;20119;-77
2021/12/19 13:33:07;;;;;;;9.05;2.22;;;8.50;99.90;;;;;;5048604;28;20044;-77
2021/12/19 13:35:37;;;;;;;25.45;2.40;;;8.50;99.90;;;;;;5079951;28;20539;-76
2021/12/19 13:38:04;;;;;;;16.13;4.28;;;8.50;99.90;;;;;;5048685;28;20036;-77
2021/12/19 13:40:35;;;;;;;11.20;2.38;;;8.50;99.90;;;;;;5044413;28;20043;-77
2021/12/19 13:43:08;;;;;;;4.35;3.45;;;8.50;99.90;;;;;;5032568;28;20036;-77
2021/12/19 13:45:37;;;;;;;;;;;8.50;99.90;;;;;;5049251;28;20124;-77
2021/12/19 13:48:07;;;;;;;21.15;3.30;;;8.50;99.90;;;;;;5029325;28;20319;-77
2021/12/19 13:50:40;;;;;;;19.10;4.65;;;8.60;99.90;;;;;;5033065;28;20045;-77
2021/12/19 13:53:06;;;;;;;15.32;2.58;;;8.60;99.90;;;;;;5081409;28;20099;-77
2021/12/19 13:55:56;;;;;;;4.32;1.90;;;8.60;99.90;;;;;;5045824;28;20044;-77
2021/12/19 13:58:22;;;;;;;10.48;2.58;;;8.60;99.90;;;;;;5079892;28;20045;-76
2021/12/19 14:00:54;;;;;;;12.30;2.47;;;8.60;99.90;;;;;;5047898;28;20048;-77
2021/12/19 14:03:44;;;;;;;2.17;0.90;;;8.60;99.90;;;;;;5045833;28;20044;-76
2021/12/19 14:06:11;;;;;;;3.70;1.83;;;8.60;99.90;;;;;;5029473;28;20044;-76
2021/12/19 14:08:38;;;;;;;1.35;0.82;;;8.60;99.90;;;;;;5081137;28;20048;-77
2021/12/19 14:11:05;;;;;;;3.20;1.00;;;8.60;99.90;;;;;;5081933;28;20413;-77
2021/12/19 14:13:34;;;;;;;2.88;1.13;;;8.60;99.90;;;;;;5046896;28;20032;-77
2021/12/19 14:16:10;;;;;;;3.15;1.25;;;8.50;99.90;;;;;;5028958;28;20025;-77
2021/12/19 14:18:41;;;;;;;6.95;1.38;;;8.50;99.90;;;;;;5079927;28;20170;-77